sensor_id;sensor_type;location;lat;lon;timestamp;pressure;altitude;pressure_sealevel;temperature;humidity
76746;BME280;65671;49.976;20.038;2023-07-08T00:00:47;98576.53;;;16.48;64.14
76746;BME280;65671;49.976;20.038;2023-07-08T00:03:16;98577.94;;;16.60;64.38
76746;BME280;65671;49.976;20.038;2023-07-08T00:05:43;98581.03;;;16.62;64.33
76746;BME280;65671;49.976;20.038;2023-07-08T00:08:16;98578.94;;;16.46;65.36
76746;BME280;65671;49.976;20.038;2023-07-08T00:10:42;98584.63;;;16.32;65.85
76746;BME280;65671;49.976;20.038;2023-07-08T00:13:08;98576.06;;;16.30;67.37
76746;BME280;65671;49.976;20.038;2023-07-08T00:15:35;98582.03;;;16.22;66.33
76746;BME280;65671;49.976;20.038;2023-07-08T00:18:09;98588.75;;;16.17;68.94
76746;BME280;65671;49.976;20.038;2023-07-08T00:20:38;98585.78;;;16.08;69.73
76746;BME280;65671;49.976;20.038;2023-07-08T00:23:04;98583.63;;;15.96;71.09
76746;BME280;65671;49.976;20.038;2023-07-08T00:25:31;98586.94;;;15.80;71.71
76746;BME280;65671;49.976;20.038;2023-07-08T00:27:57;98588.16;;;15.79;72.07
76746;BME280;65671;49.976;20.038;2023-07-08T00:30:28;98587.16;;;15.66;71.99
76746;BME280;65671;49.976;20.038;2023-07-08T00:32:55;98579.03;;;15.59;70.47
76746;BME280;65671;49.976;20.038;2023-07-08T00:35:31;98586.59;;;15.78;69.49
76746;BME280;65671;49.976;20.038;2023-07-08T00:37:58;98587.72;;;15.81;70.55
76746;BME280;65671;49.976;20.038;2023-07-08T00:40:30;98578.75;;;15.80;69.49
76746;BME280;65671;49.976;20.038;2023-07-08T00:43:00;98571.50;;;15.70;72.01
76746;BME280;65671;49.976;20.038;2023-07-08T00:45:35;98577.78;;;15.67;71.96
76746;BME280;65671;49.976;20.038;2023-07-08T00:50:39;98567.81;;;15.53;72.98
76746;BME280;65671;49.976;20.038;2023-07-08T00:53:28;98576.97;;;15.70;71.15
76746;BME280;65671;49.976;20.038;2023-07-08T00:56:28;98572.75;;;15.62;72.62
76746;BME280;65671;49.976;20.038;2023-07-08T00:59:01;98566.91;;;15.63;71.18
76746;BME280;65671;49.976;20.038;2023-07-08T01:01:29;98572.41;;;15.60;71.57
76746;BME280;65671;49.976;20.038;2023-07-08T01:04:01;98568.28;;;15.48;74.01
76746;BME280;65671;49.976;20.038;2023-07-08T01:06:30;98565.66;;;15.38;72.90
76746;BME280;65671;49.976;20.038;2023-07-08T01:08:59;98566.41;;;15.38;73.95
76746;BME280;65671;49.976;20.038;2023-07-08T01:11:31;98559.94;;;15.29;75.49
76746;BME280;65671;49.976;20.038;2023-07-08T01:13:58;98561.09;;;15.28;74.56
76746;BME280;65671;49.976;20.038;2023-07-08T01:16:25;98566.88;;;15.33;74.96
76746;BME280;65671;49.976;20.038;2023-07-08T01:18:51;98560.25;;;15.34;74.00
76746;BME280;65671;49.976;20.038;2023-07-08T01:21:47;98564.84;;;15.41;74.28
76746;BME280;65671;49.976;20.038;2023-07-08T01:24:27;98559.31;;;15.44;74.05
76746;BME280;65671;49.976;20.038;2023-07-08T01:26:53;98555.56;;;15.35;74.99
76746;BME280;65671;49.976;20.038;2023-07-08T01:29:19;98558.38;;;15.28;75.74
76746;BME280;65671;49.976;20.038;2023-07-08T01:31:44;98551.03;;;15.21;76.74
76746;BME280;65671;49.976;20.038;2023-07-08T01:34:15;98562.94;;;15.04;77.45
76746;BME280;65671;49.976;20.038;2023-07-08T01:36:44;98553.63;;;15.01;76.81
76746;BME280;65671;49.976;20.038;2023-07-08T01:39:19;98557.59;;;15.27;74.47
76746;BME280;65671;49.976;20.038;2023-07-08T01:41:45;98562.66;;;15.29;74.30
76746;BME280;65671;49.976;20.038;2023-07-08T01:44:37;98567.41;;;15.21;74.70
76746;BME280;65671;49.976;20.038;2023-07-08T01:47:16;98558.94;;;15.12;75.47
76746;BME280;65671;49.976;20.038;2023-07-08T01:49:44;98553.25;;;14.99;75.61
76746;BME280;65671;49.976;20.038;2023-07-08T01:52:12;98559.22;;;14.87;77.17
76746;BME280;65671;49.976;20.038;2023-07-08T01:54:38;98565.22;;;15.09;75.18
76746;BME280;65671;49.976;20.038;2023-07-08T01:57:04;98560.47;;;15.17;75.55
76746;BME280;65671;49.976;20.038;2023-07-08T01:59:29;98569.81;;;15.16;74.30
76746;BME280;65671;49.976;20.038;2023-07-08T02:01:55;98554.78;;;15.00;75.80
76746;BME280;65671;49.976;20.038;2023-07-08T02:04:22;98558.31;;;14.97;76.05
76746;BME280;65671;49.976;20.038;2023-07-08T02:06:53;98563.78;;;14.97;77.27
76746;BME280;65671;49.976;20.038;2023-07-08T02:09:20;98565.88;;;14.83;78.11
76746;BME280;65671;49.976;20.038;2023-07-08T02:11:46;98567.72;;;14.96;77.37
76746;BME280;65671;49.976;20.038;2023-07-08T02:14:11;98571.66;;;14.88;77.35
76746;BME280;65671;49.976;20.038;2023-07-08T02:16:37;98560.72;;;14.92;76.88
76746;BME280;65671;49.976;20.038;2023-07-08T02:19:02;98554.59;;;14.84;77.81
76746;BME280;65671;49.976;20.038;2023-07-08T02:21:27;98567.84;;;14.82;77.86
76746;BME280;65671;49.976;20.038;2023-07-08T02:23:56;98566.31;;;14.81;77.57
76746;BME280;65671;49.976;20.038;2023-07-08T02:26:22;98561.50;;;14.92;75.58
76746;BME280;65671;49.976;20.038;2023-07-08T02:28:47;98550.31;;;15.17;73.93
76746;BME280;65671;49.976;20.038;2023-07-08T02:31:13;98555.91;;;15.06;76.14
76746;BME280;65671;49.976;20.038;2023-07-08T02:33:39;98558.75;;;14.96;76.71
76746;BME280;65671;49.976;20.038;2023-07-08T02:36:04;98554.13;;;14.89;76.57
76746;BME280;65671;49.976;20.038;2023-07-08T02:38:30;98556.88;;;14.89;76.42
76746;BME280;65671;49.976;20.038;2023-07-08T02:40:56;98567.44;;;14.84;76.30
76746;BME280;65671;49.976;20.038;2023-07-08T02:43:22;98559.75;;;14.75;77.90
76746;BME280;65671;49.976;20.038;2023-07-08T02:45:51;98566.09;;;14.62;78.54
76746;BME280;65671;49.976;20.038;2023-07-08T02:48:18;98564.13;;;14.66;78.03
76746;BME280;65671;49.976;20.038;2023-07-08T02:50:43;98569.47;;;14.76;77.41
76746;BME280;65671;49.976;20.038;2023-07-08T02:53:09;98582.28;;;14.79;76.83
76746;BME280;65671;49.976;20.038;2023-07-08T02:55:34;98574.91;;;14.76;76.48
76746;BME280;65671;49.976;20.038;2023-07-08T02:58:00;98578.16;;;14.64;76.90
76746;BME280;65671;49.976;20.038;2023-07-08T03:00:25;98576.59;;;14.63;78.52
76746;BME280;65671;49.976;20.038;2023-07-08T03:02:51;98575.00;;;14.69;77.48
76746;BME280;65671;49.976;20.038;2023-07-08T03:05:16;98584.34;;;14.68;77.41
76746;BME280;65671;49.976;20.038;2023-07-08T03:07:42;98580.91;;;14.64;76.61
76746;BME280;65671;49.976;20.038;2023-07-08T03:10:08;98584.38;;;14.65;77.22
76746;BME280;65671;49.976;20.038;2023-07-08T03:12:34;98584.25;;;14.79;76.18
76746;BME280;65671;49.976;20.038;2023-07-08T03:15:00;98584.28;;;14.75;76.14
76746;BME280;65671;49.976;20.038;2023-07-08T03:17:25;98583.34;;;14.89;75.33
76746;BME280;65671;49.976;20.038;2023-07-08T03:19:51;98585.75;;;14.83;76.81
76746;BME280;65671;49.976;20.038;2023-07-08T03:22:16;98586.69;;;14.66;76.60
76746;BME280;65671;49.976;20.038;2023-07-08T03:24:42;98586.69;;;14.70;76.06
76746;BME280;65671;49.976;20.038;2023-07-08T03:27:12;98588.53;;;14.76;75.84
76746;BME280;65671;49.976;20.038;2023-07-08T03:29:38;98585.31;;;14.88;74.60
76746;BME280;65671;49.976;20.038;2023-07-08T03:32:04;98592.94;;;15.04;73.51
76746;BME280;65671;49.976;20.038;2023-07-08T03:34:29;98596.41;;;15.08;73.89
76746;BME280;65671;49.976;20.038;2023-07-08T03:36:55;98601.88;;;15.08;73.60
76746;BME280;65671;49.976;20.038;2023-07-08T03:39:23;98594.88;;;15.03;73.90
76746;BME280;65671;49.976;20.038;2023-07-08T03:41:50;98594.19;;;14.96;74.76
76746;BME280;65671;49.976;20.038;2023-07-08T03:44:16;98608.03;;;15.12;73.88
76746;BME280;65671;49.976;20.038;2023-07-08T03:46:42;98599.00;;;15.19;73.31
76746;BME280;65671;49.976;20.038;2023-07-08T03:49:09;98601.88;;;15.08;74.03
76746;BME280;65671;49.976;20.038;2023-07-08T03:51:37;98594.41;;;15.12;73.56
76746;BME280;65671;49.976;20.038;2023-07-08T03:54:05;98603.38;;;15.13;74.99
76746;BME280;65671;49.976;20.038;2023-07-08T03:56:31;98601.00;;;15.15;74.26
76746;BME280;65671;49.976;20.038;2023-07-08T03:58:57;98600.31;;;15.07;73.63
76746;BME280;65671;49.976;20.038;2023-07-08T04:01:24;98600.28;;;15.11;74.58
76746;BME280;65671;49.976;20.038;2023-07-08T04:03:52;98596.25;;;15.22;73.93
76746;BME280;65671;49.976;20.038;2023-07-08T04:06:18;98594.38;;;15.16;75.06
76746;BME280;65671;49.976;20.038;2023-07-08T04:08:44;98596.28;;;15.19;74.70
76746;BME280;65671;49.976;20.038;2023-07-08T04:11:15;98594.53;;;15.35;73.76
76746;BME280;65671;49.976;20.038;2023-07-08T04:13:41;98589.06;;;15.35;73.46
76746;BME280;65671;49.976;20.038;2023-07-08T04:16:07;98585.81;;;15.47;72.88
76746;BME280;65671;49.976;20.038;2023-07-08T04:18:39;98583.34;;;15.60;72.69
76746;BME280;65671;49.976;20.038;2023-07-08T04:21:05;98587.16;;;15.66;72.16
76746;BME280;65671;49.976;20.038;2023-07-08T04:23:31;98585.50;;;15.72;71.55
76746;BME280;65671;49.976;20.038;2023-07-08T04:25:57;98577.59;;;15.81;72.37
76746;BME280;65671;49.976;20.038;2023-07-08T04:28:23;98574.28;;;15.93;71.25
76746;BME280;65671;49.976;20.038;2023-07-08T04:30:48;98581.09;;;16.08;71.95
76746;BME280;65671;49.976;20.038;2023-07-08T04:33:14;98579.31;;;16.22;70.51
76746;BME280;65671;49.976;20.038;2023-07-08T04:35:41;98580.88;;;16.23;71.96
76746;BME280;65671;49.976;20.038;2023-07-08T04:38:21;98579.09;;;16.36;71.07
76746;BME280;65671;49.976;20.038;2023-07-08T04:40:48;98576.69;;;16.41;70.35
76746;BME280;65671;49.976;20.038;2023-07-08T04:43:14;98586.56;;;16.58;70.06
76746;BME280;65671;49.976;20.038;2023-07-08T04:45:42;98581.97;;;16.75;69.46
76746;BME280;65671;49.976;20.038;2023-07-08T04:48:13;98574.94;;;16.97;68.86
76746;BME280;65671;49.976;20.038;2023-07-08T04:50:49;98572.66;;;16.92;68.63
76746;BME280;65671;49.976;20.038;2023-07-08T04:53:16;98578.78;;;17.19;67.82
76746;BME280;65671;49.976;20.038;2023-07-08T04:55:48;98590.50;;;17.40;65.96
76746;BME280;65671;49.976;20.038;2023-07-08T04:58:15;98587.69;;;17.43;66.29
76746;BME280;65671;49.976;20.038;2023-07-08T05:00:41;98588.19;;;17.58;64.02
76746;BME280;65671;49.976;20.038;2023-07-08T05:03:07;98584.31;;;17.75;67.46
76746;BME280;65671;49.976;20.038;2023-07-08T05:05:33;98581.22;;;17.73;67.46
76746;BME280;65671;49.976;20.038;2023-07-08T05:07:58;98582.13;;;17.86;70.02
76746;BME280;65671;49.976;20.038;2023-07-08T05:10:24;98589.75;;;17.95;69.34
76746;BME280;65671;49.976;20.038;2023-07-08T05:12:49;98586.06;;;18.01;64.65
76746;BME280;65671;49.976;20.038;2023-07-08T05:15:16;98582.25;;;18.15;65.73
76746;BME280;65671;49.976;20.038;2023-07-08T05:17:42;98580.34;;;18.12;65.24
76746;BME280;65671;49.976;20.038;2023-07-08T05:20:10;98574.19;;;18.24;66.27
76746;BME280;65671;49.976;20.038;2023-07-08T05:22:35;98582.78;;;18.42;67.17
76746;BME280;65671;49.976;20.038;2023-07-08T05:25:01;98578.47;;;18.41;65.00
76746;BME280;65671;49.976;20.038;2023-07-08T05:27:27;98574.63;;;18.38;66.06
76746;BME280;65671;49.976;20.038;2023-07-08T05:29:53;98583.63;;;18.55;66.80
76746;BME280;65671;49.976;20.038;2023-07-08T05:32:19;98577.16;;;18.46;64.96
76746;BME280;65671;49.976;20.038;2023-07-08T05:34:46;98581.38;;;18.66;67.39
76746;BME280;65671;49.976;20.038;2023-07-08T05:37:12;98578.75;;;18.63;65.24
76746;BME280;65671;49.976;20.038;2023-07-08T05:39:38;98576.81;;;18.76;64.66
76746;BME280;65671;49.976;20.038;2023-07-08T05:42:04;98574.53;;;18.74;65.31
76746;BME280;65671;49.976;20.038;2023-07-08T05:44:29;98585.31;;;18.81;65.52
76746;BME280;65671;49.976;20.038;2023-07-08T05:46:55;98591.53;;;18.98;65.75
76746;BME280;65671;49.976;20.038;2023-07-08T05:49:20;98578.47;;;19.02;65.95
76746;BME280;65671;49.976;20.038;2023-07-08T05:51:46;98583.72;;;18.97;64.57
76746;BME280;65671;49.976;20.038;2023-07-08T05:54:13;98564.13;;;19.11;64.31
76746;BME280;65671;49.976;20.038;2023-07-08T05:56:38;98585.09;;;19.33;65.75
76746;BME280;65671;49.976;20.038;2023-07-08T05:59:04;98579.84;;;19.39;67.23
76746;BME280;65671;49.976;20.038;2023-07-08T06:01:30;98584.94;;;19.53;65.81
76746;BME280;65671;49.976;20.038;2023-07-08T06:03:56;98589.66;;;19.53;63.90
76746;BME280;65671;49.976;20.038;2023-07-08T06:06:27;98589.72;;;19.78;62.46
76746;BME280;65671;49.976;20.038;2023-07-08T06:08:53;98589.06;;;19.86;59.01
76746;BME280;65671;49.976;20.038;2023-07-08T06:11:19;98588.81;;;20.06;60.79
76746;BME280;65671;49.976;20.038;2023-07-08T06:13:45;98590.91;;;20.02;61.33
76746;BME280;65671;49.976;20.038;2023-07-08T06:16:11;98593.56;;;20.18;61.46
76746;BME280;65671;49.976;20.038;2023-07-08T06:18:36;98590.69;;;20.34;60.99
76746;BME280;65671;49.976;20.038;2023-07-08T06:21:03;98591.44;;;20.60;61.37
76746;BME280;65671;49.976;20.038;2023-07-08T06:23:29;98586.16;;;20.66;60.32
76746;BME280;65671;49.976;20.038;2023-07-08T06:25:54;98583.19;;;20.60;61.41
76746;BME280;65671;49.976;20.038;2023-07-08T06:28:21;98586.22;;;20.75;62.89
76746;BME280;65671;49.976;20.038;2023-07-08T06:30:46;98587.53;;;20.83;62.37
76746;BME280;65671;49.976;20.038;2023-07-08T06:33:12;98587.31;;;20.77;62.02
76746;BME280;65671;49.976;20.038;2023-07-08T06:35:39;98587.22;;;21.02;62.33
76746;BME280;65671;49.976;20.038;2023-07-08T06:38:05;98582.38;;;21.06;61.21
76746;BME280;65671;49.976;20.038;2023-07-08T06:40:31;98584.03;;;21.04;61.39
76746;BME280;65671;49.976;20.038;2023-07-08T06:42:57;98582.34;;;21.19;62.47
76746;BME280;65671;49.976;20.038;2023-07-08T06:45:23;98583.63;;;21.27;62.42
76746;BME280;65671;49.976;20.038;2023-07-08T06:47:48;98586.19;;;21.43;59.89
76746;BME280;65671;49.976;20.038;2023-07-08T06:50:14;98583.03;;;21.54;61.04
76746;BME280;65671;49.976;20.038;2023-07-08T06:52:39;98579.44;;;21.66;61.11
76746;BME280;65671;49.976;20.038;2023-07-08T06:55:07;98587.28;;;21.77;59.05
76746;BME280;65671;49.976;20.038;2023-07-08T06:57:34;98590.88;;;21.86;55.21
76746;BME280;65671;49.976;20.038;2023-07-08T07:00:00;98589.25;;;21.98;56.45
76746;BME280;65671;49.976;20.038;2023-07-08T07:02:26;98590.81;;;21.99;56.50
76746;BME280;65671;49.976;20.038;2023-07-08T07:04:52;98594.41;;;21.87;51.58
76746;BME280;65671;49.976;20.038;2023-07-08T07:07:18;98590.09;;;21.86;58.13
76746;BME280;65671;49.976;20.038;2023-07-08T07:09:44;98588.56;;;22.15;57.97
76746;BME280;65671;49.976;20.038;2023-07-08T07:12:10;98589.66;;;22.27;52.58
76746;BME280;65671;49.976;20.038;2023-07-08T07:14:35;98584.88;;;22.09;51.61
76746;BME280;65671;49.976;20.038;2023-07-08T07:17:01;98577.13;;;22.35;52.51
76746;BME280;65671;49.976;20.038;2023-07-08T07:19:27;98579.22;;;22.13;52.48
76746;BME280;65671;49.976;20.038;2023-07-08T07:21:53;98567.16;;;22.29;49.42
76746;BME280;65671;49.976;20.038;2023-07-08T07:24:19;98576.59;;;22.58;52.30
76746;BME280;65671;49.976;20.038;2023-07-08T07:26:45;98582.06;;;22.40;48.17
76746;BME280;65671;49.976;20.038;2023-07-08T07:29:13;98574.88;;;22.52;47.89
76746;BME280;65671;49.976;20.038;2023-07-08T07:31:39;98585.81;;;22.64;46.57
76746;BME280;65671;49.976;20.038;2023-07-08T07:34:06;98583.69;;;22.87;46.85
76746;BME280;65671;49.976;20.038;2023-07-08T07:36:32;98570.66;;;22.78;49.08
76746;BME280;65671;49.976;20.038;2023-07-08T07:38:58;98572.16;;;23.06;56.44
76746;BME280;65671;49.976;20.038;2023-07-08T07:41:23;98577.97;;;23.26;54.85
76746;BME280;65671;49.976;20.038;2023-07-08T07:43:49;98581.69;;;23.42;53.67
76746;BME280;65671;49.976;20.038;2023-07-08T07:46:15;98576.75;;;23.27;52.37
76746;BME280;65671;49.976;20.038;2023-07-08T07:48:40;98578.91;;;23.32;47.99
76746;BME280;65671;49.976;20.038;2023-07-08T07:51:07;98573.69;;;23.34;48.16
76746;BME280;65671;49.976;20.038;2023-07-08T07:53:36;98585.81;;;23.37;48.98
76746;BME280;65671;49.976;20.038;2023-07-08T07:56:03;98582.28;;;23.37;42.85
76746;BME280;65671;49.976;20.038;2023-07-08T07:58:29;98571.09;;;23.22;43.25
76746;BME280;65671;49.976;20.038;2023-07-08T08:00:55;98574.91;;;23.61;47.65
76746;BME280;65671;49.976;20.038;2023-07-08T08:03:21;98574.47;;;23.35;44.28
76746;BME280;65671;49.976;20.038;2023-07-08T08:05:47;98565.84;;;23.33;46.38
76746;BME280;65671;49.976;20.038;2023-07-08T08:08:13;98571.84;;;23.31;41.59
76746;BME280;65671;49.976;20.038;2023-07-08T08:10:39;98574.63;;;23.31;44.88
76746;BME280;65671;49.976;20.038;2023-07-08T08:13:04;98574.44;;;23.53;43.56
76746;BME280;65671;49.976;20.038;2023-07-08T08:15:30;98578.91;;;23.51;40.75
76746;BME280;65671;49.976;20.038;2023-07-08T08:17:56;98585.81;;;23.55;40.48
76746;BME280;65671;49.976;20.038;2023-07-08T08:20:23;98581.03;;;23.65;39.64
76746;BME280;65671;49.976;20.038;2023-07-08T08:22:50;98578.97;;;23.83;43.08
76746;BME280;65671;49.976;20.038;2023-07-08T08:25:17;98580.69;;;23.72;39.66
76746;BME280;65671;49.976;20.038;2023-07-08T08:27:43;98581.91;;;23.80;40.57
76746;BME280;65671;49.976;20.038;2023-07-08T08:30:09;98586.38;;;23.77;39.71
76746;BME280;65671;49.976;20.038;2023-07-08T08:32:35;98576.13;;;24.11;43.65
76746;BME280;65671;49.976;20.038;2023-07-08T08:35:01;98572.81;;;23.88;39.95
76746;BME280;65671;49.976;20.038;2023-07-08T08:37:27;98572.28;;;24.08;38.98
76746;BME280;65671;49.976;20.038;2023-07-08T08:39:52;98574.47;;;23.95;38.12
76746;BME280;65671;49.976;20.038;2023-07-08T08:42:27;98577.41;;;23.92;39.37
76746;BME280;65671;49.976;20.038;2023-07-08T08:44:54;98581.63;;;24.20;39.24
76746;BME280;65671;49.976;20.038;2023-07-08T08:47:35;98576.44;;;24.04;37.62
76746;BME280;65671;49.976;20.038;2023-07-08T08:52:46;98578.09;;;24.19;37.96
76746;BME280;65671;49.976;20.038;2023-07-08T08:55:13;98554.97;;;24.55;39.49
76746;BME280;65671;49.976;20.038;2023-07-08T08:57:48;98566.66;;;24.83;41.88
76746;BME280;65671;49.976;20.038;2023-07-08T09:00:28;98562.72;;;24.66;35.89
76746;BME280;65671;49.976;20.038;2023-07-08T09:03:07;98559.78;;;24.69;36.00
76746;BME280;65671;49.976;20.038;2023-07-08T09:05:34;98560.44;;;24.64;37.19
76746;BME280;65671;49.976;20.038;2023-07-08T09:11:01;98571.16;;;24.71;33.75
76746;BME280;65671;49.976;20.038;2023-07-08T09:13:35;98561.84;;;24.36;35.10
76746;BME280;65671;49.976;20.038;2023-07-08T09:16:16;98571.50;;;24.17;35.06
76746;BME280;65671;49.976;20.038;2023-07-08T09:19:15;98573.19;;;24.71;39.71
76746;BME280;65671;49.976;20.038;2023-07-08T09:24:41;98560.84;;;24.48;34.98
76746;BME280;65671;49.976;20.038;2023-07-08T09:27:08;98564.81;;;24.56;35.42
76746;BME280;65671;49.976;20.038;2023-07-08T09:29:34;98565.09;;;24.58;33.70
76746;BME280;65671;49.976;20.038;2023-07-08T09:32:19;98573.34;;;24.67;35.36
76746;BME280;65671;49.976;20.038;2023-07-08T09:34:56;98567.28;;;24.78;35.89
76746;BME280;65671;49.976;20.038;2023-07-08T09:37:30;98566.69;;;24.26;33.11
76746;BME280;65671;49.976;20.038;2023-07-08T09:40:01;98562.88;;;24.24;36.20
76746;BME280;65671;49.976;20.038;2023-07-08T09:42:35;98563.72;;;24.30;33.74
76746;BME280;65671;49.976;20.038;2023-07-08T09:45:23;98565.22;;;24.64;35.10
76746;BME280;65671;49.976;20.038;2023-07-08T09:48:14;98570.69;;;24.73;34.93
76746;BME280;65671;49.976;20.038;2023-07-08T09:50:52;98562.44;;;25.40;37.30
76746;BME280;65671;49.976;20.038;2023-07-08T09:53:43;98556.50;;;25.04;34.11
76746;BME280;65671;49.976;20.038;2023-07-08T09:56:32;98557.03;;;24.69;32.40
76746;BME280;65671;49.976;20.038;2023-07-08T09:59:18;98553.88;;;24.85;33.67
76746;BME280;65671;49.976;20.038;2023-07-08T10:02:00;98546.47;;;25.06;34.02
76746;BME280;65671;49.976;20.038;2023-07-08T10:04:52;98541.00;;;24.97;32.10
76746;BME280;65671;49.976;20.038;2023-07-08T10:07:46;98551.34;;;25.26;35.98
76746;BME280;65671;49.976;20.038;2023-07-08T10:10:37;98548.06;;;24.74;30.93
76746;BME280;65671;49.976;20.038;2023-07-08T10:13:40;98540.47;;;24.84;31.98
76746;BME280;65671;49.976;20.038;2023-07-08T10:16:30;98544.44;;;25.07;32.00
76746;BME280;65671;49.976;20.038;2023-07-08T10:18:57;98554.59;;;24.86;31.59
76746;BME280;65671;49.976;20.038;2023-07-08T10:21:36;98552.75;;;25.07;37.08
76746;BME280;65671;49.976;20.038;2023-07-08T10:27:26;98545.13;;;25.16;33.06
76746;BME280;65671;49.976;20.038;2023-07-08T10:32:28;98544.41;;;25.74;37.29
76746;BME280;65671;49.976;20.038;2023-07-08T10:35:15;98540.19;;;25.49;33.27
76746;BME280;65671;49.976;20.038;2023-07-08T10:41:16;98543.03;;;25.84;34.06
76746;BME280;65671;49.976;20.038;2023-07-08T10:44:04;98535.13;;;25.48;31.40
76746;BME280;65671;49.976;20.038;2023-07-08T10:51:54;98529.34;;;25.08;31.52
76746;BME280;65671;49.976;20.038;2023-07-08T11:05:44;98509.63;;;26.48;34.45
76746;BME280;65671;49.976;20.038;2023-07-08T11:08:20;98508.94;;;25.98;31.93
76746;BME280;65671;49.976;20.038;2023-07-08T11:10:54;98498.28;;;25.77;32.68
76746;BME280;65671;49.976;20.038;2023-07-08T11:13:23;98499.09;;;25.97;31.86
76746;BME280;65671;49.976;20.038;2023-07-08T11:16:28;98495.00;;;25.78;30.82
76746;BME280;65671;49.976;20.038;2023-07-08T11:19:06;98500.31;;;25.62;30.31
76746;BME280;65671;49.976;20.038;2023-07-08T11:24:36;98500.69;;;26.19;31.36
76746;BME280;65671;49.976;20.038;2023-07-08T11:27:24;98502.38;;;25.81;29.04
76746;BME280;65671;49.976;20.038;2023-07-08T11:32:21;98502.44;;;26.36;30.89
76746;BME280;65671;49.976;20.038;2023-07-08T11:34:50;98493.72;;;26.69;32.88
76746;BME280;65671;49.976;20.038;2023-07-08T11:37:18;98493.06;;;26.54;29.25
76746;BME280;65671;49.976;20.038;2023-07-08T11:39:46;98490.56;;;26.16;28.67
76746;BME280;65671;49.976;20.038;2023-07-08T11:44:59;98492.69;;;26.87;31.05
76746;BME280;65671;49.976;20.038;2023-07-08T11:47:34;98487.84;;;26.61;28.09
76746;BME280;65671;49.976;20.038;2023-07-08T11:50:03;98485.47;;;26.54;29.28
76746;BME280;65671;49.976;20.038;2023-07-08T11:52:29;98479.75;;;27.04;31.41
76746;BME280;65671;49.976;20.038;2023-07-08T11:55:19;98479.63;;;27.19;31.99
76746;BME280;65671;49.976;20.038;2023-07-08T11:57:52;98480.81;;;27.12;31.02
76746;BME280;65671;49.976;20.038;2023-07-08T12:00:22;98475.97;;;27.33;31.52
76746;BME280;65671;49.976;20.038;2023-07-08T12:02:53;98475.41;;;27.54;31.41
76746;BME280;65671;49.976;20.038;2023-07-08T12:05:35;98479.56;;;27.39;29.66
76746;BME280;65671;49.976;20.038;2023-07-08T12:08:02;98473.84;;;26.96;28.54
76746;BME280;65671;49.976;20.038;2023-07-08T12:10:42;98471.22;;;26.87;30.37
76746;BME280;65671;49.976;20.038;2023-07-08T12:13:13;98472.09;;;27.25;31.20
76746;BME280;65671;49.976;20.038;2023-07-08T12:15:40;98467.72;;;27.44;32.05
76746;BME280;65671;49.976;20.038;2023-07-08T12:20:37;98467.38;;;27.62;29.69
76746;BME280;65671;49.976;20.038;2023-07-08T12:23:12;98460.16;;;27.44;30.14
76746;BME280;65671;49.976;20.038;2023-07-08T12:25:46;98459.13;;;27.42;29.18
76746;BME280;65671;49.976;20.038;2023-07-08T12:28:19;98463.97;;;27.47;27.84
76746;BME280;65671;49.976;20.038;2023-07-08T12:30:46;98460.44;;;27.83;32.70
76746;BME280;65671;49.976;20.038;2023-07-08T12:33:26;98459.16;;;27.84;29.63
76746;BME280;65671;49.976;20.038;2023-07-08T12:35:54;98459.16;;;27.84;30.04
76746;BME280;65671;49.976;20.038;2023-07-08T12:38:39;98458.63;;;27.43;26.95
76746;BME280;65671;49.976;20.038;2023-07-08T12:41:09;98455.63;;;27.21;28.11
76746;BME280;65671;49.976;20.038;2023-07-08T12:43:35;98455.66;;;27.52;32.22
76746;BME280;65671;49.976;20.038;2023-07-08T12:46:01;98447.16;;;27.36;27.90
76746;BME280;65671;49.976;20.038;2023-07-08T12:48:33;98457.38;;;27.81;31.09
76746;BME280;65671;49.976;20.038;2023-07-08T12:50:59;98455.34;;;27.82;30.47
76746;BME280;65671;49.976;20.038;2023-07-08T12:53:25;98451.75;;;27.76;29.57
76746;BME280;65671;49.976;20.038;2023-07-08T12:55:52;98450.13;;;27.58;28.04
76746;BME280;65671;49.976;20.038;2023-07-08T12:58:24;98451.28;;;27.46;29.49
76746;BME280;65671;49.976;20.038;2023-07-08T13:00:51;98442.75;;;27.92;29.38
76746;BME280;65671;49.976;20.038;2023-07-08T13:03:19;98446.25;;;28.29;29.62
76746;BME280;65671;49.976;20.038;2023-07-08T13:05:50;98443.81;;;28.48;31.41
76746;BME280;65671;49.976;20.038;2023-07-08T13:08:18;98441.41;;;28.18;31.43
76746;BME280;65671;49.976;20.038;2023-07-08T13:10:46;98439.25;;;27.54;30.51
76746;BME280;65671;49.976;20.038;2023-07-08T13:13:20;98440.56;;;27.33;28.35
76746;BME280;65671;49.976;20.038;2023-07-08T13:15:46;98441.69;;;27.78;29.56
76746;BME280;65671;49.976;20.038;2023-07-08T13:18:17;98441.34;;;27.08;29.24
76746;BME280;65671;49.976;20.038;2023-07-08T13:20:48;98443.38;;;27.39;30.05
76746;BME280;65671;49.976;20.038;2023-07-08T13:23:15;98440.69;;;27.19;29.08
76746;BME280;65671;49.976;20.038;2023-07-08T13:25:41;98429.66;;;27.30;30.73
76746;BME280;65671;49.976;20.038;2023-07-08T13:28:27;98438.25;;;27.00;27.72
76746;BME280;65671;49.976;20.038;2023-07-08T13:31:02;98427.47;;;27.39;30.68
76746;BME280;65671;49.976;20.038;2023-07-08T13:33:30;98426.69;;;27.39;31.53
76746;BME280;65671;49.976;20.038;2023-07-08T13:35:56;98429.59;;;27.19;31.29
76746;BME280;65671;49.976;20.038;2023-07-08T13:38:25;98430.09;;;27.23;28.89
76746;BME280;65671;49.976;20.038;2023-07-08T13:41:00;98432.91;;;26.97;29.34
76746;BME280;65671;49.976;20.038;2023-07-08T13:43:32;98425.81;;;27.53;28.68
76746;BME280;65671;49.976;20.038;2023-07-08T13:45:58;98420.91;;;27.79;30.37
76746;BME280;65671;49.976;20.038;2023-07-08T13:48:29;98421.41;;;27.72;28.17
76746;BME280;65671;49.976;20.038;2023-07-08T13:51:09;98417.97;;;27.51;29.60